createdAt,value
2018-06-23T00:01:25.179Z,2.03
2018-06-23T00:03:54.187Z,2.23
2018-06-23T00:06:22.922Z,2.30
2018-06-23T00:08:51.628Z,2.20
2018-06-23T00:11:19.988Z,2.57
2018-06-23T00:13:48.637Z,2.50
2018-06-23T00:16:17.309Z,1.97
2018-06-23T00:18:45.959Z,2.57
2018-06-23T00:21:14.592Z,2.27
2018-06-23T00:23:43.296Z,2.73
2018-06-23T00:26:17.475Z,2.40
2018-06-23T00:28:46.084Z,2.53
2018-06-23T00:31:14.822Z,2.63
2018-06-23T00:33:43.506Z,2.60
2018-06-23T00:36:11.870Z,2.40
2018-06-23T00:38:40.619Z,2.60
2018-06-23T00:41:09.233Z,2.50
2018-06-23T00:43:37.853Z,2.60
2018-06-23T00:46:06.524Z,2.30
2018-06-23T00:48:35.420Z,2.27
2018-06-23T00:51:04.185Z,2.50
2018-06-23T00:53:32.816Z,2.57
2018-06-23T00:56:01.766Z,2.50
2018-06-23T00:58:37.204Z,2.60
2018-06-23T01:01:05.936Z,2.10
2018-06-23T01:03:34.705Z,2.40
2018-06-23T01:06:03.533Z,2.57
2018-06-23T01:08:32.131Z,2.60
2018-06-23T01:11:00.759Z,2.60
2018-06-23T01:13:29.418Z,2.27
2018-06-23T01:15:58.205Z,2.00
2018-06-23T01:18:27.174Z,2.27
2018-06-23T01:20:55.826Z,2.43
2018-06-23T01:23:24.587Z,2.13
2018-06-23T01:25:53.396Z,2.50
2018-06-23T01:28:22.085Z,2.23
2018-06-23T01:30:50.713Z,2.30
2018-06-23T01:33:19.380Z,2.00
2018-06-23T01:35:48.022Z,2.30
2018-06-23T01:38:16.689Z,2.00
2018-06-23T01:40:45.600Z,2.33
2018-06-23T01:43:14.407Z,2.40
2018-06-23T01:45:43.064Z,2.20
2018-06-23T01:48:11.846Z,2.33
2018-06-23T01:50:40.751Z,2.60
2018-06-23T01:53:09.544Z,2.30
2018-06-23T01:55:38.295Z,2.10
2018-06-23T01:58:06.956Z,2.43
2018-06-23T02:00:35.804Z,2.07
2018-06-23T02:03:05.189Z,2.12
2018-06-23T02:05:33.897Z,2.40
2018-06-23T02:08:02.725Z,2.20
2018-06-23T02:10:31.396Z,2.27
2018-06-23T02:13:00.200Z,2.10
2018-06-23T02:15:34.273Z,2.03
2018-06-23T02:18:08.368Z,2.30
2018-06-23T02:20:42.475Z,2.30
2018-06-23T02:23:16.633Z,1.93
2018-06-23T02:25:50.532Z,2.03
2018-06-23T02:28:24.658Z,2.10
2018-06-23T02:30:58.782Z,2.50
2018-06-23T02:33:32.723Z,2.10
2018-06-23T02:36:01.428Z,2.30
2018-06-23T02:38:30.082Z,2.07
2018-06-23T02:40:58.798Z,1.93
2018-06-23T02:43:27.397Z,1.93
2018-06-23T02:45:56.127Z,1.90
2018-06-23T02:48:24.874Z,1.90
2018-06-23T02:50:53.477Z,2.13
2018-06-23T02:53:21.794Z,2.37
2018-06-23T02:55:50.468Z,2.50
2018-06-23T02:58:19.286Z,2.30
2018-06-23T03:00:48.126Z,2.17
2018-06-23T03:03:16.825Z,2.30
2018-06-23T03:05:45.529Z,2.87
2018-06-23T03:08:14.123Z,2.00
2018-06-23T03:10:42.765Z,2.13
2018-06-23T03:13:11.403Z,2.30
2018-06-23T03:15:40.420Z,1.90
2018-06-23T03:18:09.038Z,2.20
2018-06-23T03:20:37.695Z,1.87
2018-06-23T03:23:06.332Z,2.20
2018-06-23T03:25:34.976Z,2.30
2018-06-23T03:28:03.585Z,2.30
2018-06-23T03:30:32.183Z,2.17
2018-06-23T03:33:00.895Z,2.10
2018-06-23T03:35:29.612Z,2.47
2018-06-23T03:37:58.228Z,2.03
2018-06-23T03:40:26.879Z,2.10
2018-06-23T03:42:55.573Z,2.10
2018-06-23T03:45:24.209Z,2.83
2018-06-23T03:47:52.916Z,2.27
2018-06-23T03:50:21.643Z,2.20
2018-06-23T03:52:50.268Z,2.23
2018-06-23T03:55:19.025Z,1.87
2018-06-23T03:57:47.659Z,2.33
2018-06-23T04:00:16.705Z,2.20
2018-06-23T04:02:45.473Z,2.57
2018-06-23T04:05:14.261Z,2.33
2018-06-23T04:07:43.026Z,2.43
2018-06-23T04:10:12.162Z,2.33
2018-06-23T04:12:40.789Z,2.23
2018-06-23T04:15:09.420Z,2.17
2018-06-23T04:17:38.208Z,2.23
2018-06-23T04:20:06.892Z,2.17
2018-06-23T04:22:35.540Z,2.07
2018-06-23T04:25:04.333Z,2.30
2018-06-23T04:27:32.961Z,2.37
2018-06-23T04:30:01.635Z,2.00
2018-06-23T04:32:30.441Z,2.70
2018-06-23T04:34:58.696Z,2.33
2018-06-23T04:37:27.663Z,2.33
2018-06-23T04:39:56.277Z,2.43
2018-06-23T04:42:24.964Z,2.10
2018-06-23T04:44:53.701Z,2.10
2018-06-23T04:47:22.378Z,2.37
2018-06-23T04:49:51.098Z,2.10
2018-06-23T04:52:19.857Z,2.73
2018-06-23T04:54:48.504Z,2.30
2018-06-23T04:57:17.157Z,2.20
2018-06-23T04:59:45.948Z,2.20
2018-06-23T05:02:14.549Z,2.43
2018-06-23T05:04:43.217Z,2.33
2018-06-23T05:07:11.824Z,2.30
2018-06-23T05:09:40.449Z,2.87
2018-06-23T05:12:09.107Z,2.40
2018-06-23T05:14:37.732Z,2.50
2018-06-23T05:17:06.639Z,2.40
2018-06-23T05:19:35.604Z,2.20
2018-06-23T05:22:04.344Z,2.17
2018-06-23T05:24:33.626Z,2.40
2018-06-23T05:27:02.471Z,2.63
2018-06-23T05:29:31.200Z,2.50
2018-06-23T05:31:59.800Z,2.63
2018-06-23T05:34:28.512Z,2.50
2018-06-23T05:36:57.467Z,2.50
2018-06-23T05:39:26.077Z,2.40
2018-06-23T05:41:54.750Z,2.43
2018-06-23T05:44:23.423Z,2.63
2018-06-23T05:46:52.093Z,2.70
2018-06-23T05:49:20.722Z,2.47
2018-06-23T05:51:49.376Z,2.63
2018-06-23T05:54:18.044Z,2.27
2018-06-23T05:56:46.690Z,2.90
2018-06-23T05:59:15.280Z,2.53
2018-06-23T06:01:43.922Z,2.70
2018-06-23T06:04:12.617Z,2.47
2018-06-23T06:06:41.295Z,2.63
2018-06-23T06:09:10.628Z,2.67
2018-06-23T06:11:39.326Z,2.07
2018-06-23T06:14:08.043Z,2.50
2018-06-23T06:17:25.733Z,2.40
2018-06-23T06:19:57.558Z,2.50
2018-06-23T06:22:27.299Z,2.80
2018-06-23T06:24:56.195Z,2.63
2018-06-23T06:27:24.913Z,3.00
2018-06-23T06:29:54.112Z,2.90
2018-06-23T06:32:23.559Z,2.73
2018-06-23T06:34:52.170Z,2.57
2018-06-23T06:37:20.872Z,2.97
2018-06-23T06:39:49.521Z,2.77
2018-06-23T06:42:18.252Z,2.87
2018-06-23T06:44:46.861Z,2.63
2018-06-23T06:47:17.828Z,2.67
2018-06-23T06:49:46.592Z,3.10
2018-06-23T06:52:15.231Z,2.40
2018-06-23T06:54:44.193Z,2.73
2018-06-23T06:57:12.937Z,3.00
2018-06-23T06:59:41.650Z,2.77
2018-06-23T07:02:10.304Z,2.47
2018-06-23T07:04:38.957Z,3.00
2018-06-23T07:07:07.597Z,2.53
2018-06-23T07:09:36.323Z,2.83
2018-06-23T07:12:04.993Z,2.43
2018-06-23T07:14:33.623Z,3.00
2018-06-23T07:17:02.037Z,3.23
2018-06-23T07:19:30.793Z,3.13
2018-06-23T07:21:59.141Z,2.50
2018-06-23T07:24:28.290Z,2.60
2018-06-23T07:26:56.943Z,3.07
2018-06-23T07:29:25.658Z,2.53
2018-06-23T07:31:54.282Z,2.50
2018-06-23T07:34:22.971Z,2.87
2018-06-23T07:36:51.621Z,2.43
2018-06-23T07:39:20.246Z,2.90
2018-06-23T07:41:48.940Z,2.90
2018-06-23T07:44:17.596Z,2.97
2018-06-23T07:46:46.568Z,2.60
2018-06-23T07:49:15.246Z,2.70
2018-06-23T07:51:43.889Z,2.47
2018-06-23T07:54:12.533Z,2.60
2018-06-23T07:56:41.149Z,2.20
2018-06-23T07:59:09.890Z,2.80
2018-06-23T08:01:38.514Z,2.67
2018-06-23T08:04:07.843Z,2.37
2018-06-23T08:06:36.596Z,2.20
2018-06-23T08:09:08.712Z,2.17
2018-06-23T08:11:37.819Z,2.73
2018-06-23T08:14:06.449Z,3.27
2018-06-23T08:16:35.352Z,2.63
2018-06-23T08:19:04.057Z,2.73
2018-06-23T08:21:32.712Z,2.93
2018-06-23T08:24:01.337Z,3.07
2018-06-23T08:26:30.039Z,2.67
2018-06-23T08:28:58.697Z,3.30
2018-06-23T08:31:27.401Z,3.27
2018-06-23T08:33:56.653Z,3.67
2018-06-23T08:36:25.345Z,2.90
2018-06-23T08:38:54.042Z,3.00
2018-06-23T08:41:22.681Z,3.17
2018-06-23T08:43:50.948Z,3.17
2018-06-23T08:46:19.616Z,3.20
2018-06-23T08:48:48.328Z,3.47
2018-06-23T08:51:17.000Z,2.97
2018-06-23T08:53:45.661Z,2.77
2018-06-23T08:56:14.380Z,2.83
2018-06-23T08:58:43.049Z,3.13
2018-06-23T09:01:11.732Z,2.87
2018-06-23T09:03:40.413Z,3.33
2018-06-23T09:06:09.083Z,2.50
2018-06-23T09:08:37.845Z,2.70
2018-06-23T09:11:06.460Z,2.63
2018-06-23T09:13:35.149Z,2.73
2018-06-23T09:16:03.845Z,2.30
2018-06-23T09:18:32.507Z,2.70
2018-06-23T09:21:01.217Z,2.60
2018-06-23T09:23:29.852Z,2.80
2018-06-23T09:25:58.559Z,2.90
2018-06-23T09:28:27.104Z,2.90
2018-06-23T09:30:55.744Z,3.00
2018-06-23T09:33:24.324Z,3.43
2018-06-23T09:35:52.935Z,2.97
2018-06-23T09:38:21.600Z,2.87
2018-06-23T09:40:50.193Z,3.50
2018-06-23T09:43:18.841Z,2.83
2018-06-23T09:45:47.533Z,3.23
2018-06-23T09:48:16.134Z,3.13
2018-06-23T09:50:44.766Z,3.20
2018-06-23T09:53:13.496Z,3.23
2018-06-23T09:55:42.180Z,3.03
2018-06-23T09:58:10.880Z,2.90
2018-06-23T10:00:39.549Z,2.87
2018-06-23T10:03:08.276Z,2.93
2018-06-23T10:05:36.992Z,2.93
2018-06-23T10:08:05.576Z,2.70
2018-06-23T10:10:34.185Z,2.70
2018-06-23T10:13:02.828Z,2.60
2018-06-23T10:15:31.522Z,2.60
2018-06-23T10:17:59.864Z,3.63
2018-06-23T10:20:29.697Z,2.80
2018-06-23T10:22:58.364Z,2.60
2018-06-23T10:25:27.051Z,2.80
2018-06-23T10:27:55.731Z,2.57
2018-06-23T10:30:24.418Z,2.70
2018-06-23T10:32:53.040Z,2.60
2018-06-23T10:35:21.669Z,2.50
2018-06-23T10:37:50.687Z,2.43
2018-06-23T10:40:19.452Z,1.80
2018-06-23T10:42:48.225Z,2.33
2018-06-23T10:45:17.068Z,2.20
2018-06-23T10:47:45.693Z,2.20
2018-06-23T10:50:14.353Z,2.43
2018-06-23T10:52:43.074Z,2.20
2018-06-23T10:55:11.912Z,1.67
2018-06-23T10:57:40.689Z,1.80
2018-06-23T11:00:09.630Z,2.50
2018-06-23T11:02:38.289Z,2.00
2018-06-23T11:05:07.160Z,2.37
2018-06-23T11:07:35.824Z,2.30
2018-06-23T11:10:04.851Z,2.17
2018-06-23T11:12:33.614Z,2.23
2018-06-23T11:15:02.389Z,2.10
2018-06-23T11:17:31.174Z,2.30
2018-06-23T11:20:00.011Z,2.40
2018-06-23T11:22:28.997Z,2.20
2018-06-23T11:24:57.888Z,2.40
2018-06-23T11:27:26.550Z,2.60
2018-06-23T11:29:55.284Z,2.77
2018-06-23T11:32:23.957Z,2.60
2018-06-23T11:34:52.571Z,2.73
2018-06-23T11:37:21.269Z,3.00
2018-06-23T11:39:49.969Z,3.07
2018-06-23T11:42:18.669Z,3.10
2018-06-23T11:44:47.398Z,2.87
2018-06-23T11:47:16.171Z,3.33
2018-06-23T11:49:45.133Z,3.70
2018-06-23T11:52:13.888Z,3.57
2018-06-23T11:54:42.600Z,3.80
2018-06-23T11:57:11.416Z,3.77
2018-06-23T11:59:40.117Z,4.00
2018-06-23T12:02:08.882Z,4.10
2018-06-23T12:04:37.575Z,4.40
2018-06-23T12:07:06.277Z,4.30
2018-06-23T12:09:34.996Z,4.13
2018-06-23T12:12:03.858Z,4.00
2018-06-23T12:14:32.548Z,4.47
2018-06-23T12:17:01.360Z,4.43
2018-06-23T12:19:30.109Z,4.30
2018-06-23T12:21:58.816Z,4.50
2018-06-23T12:24:27.501Z,4.30
2018-06-23T12:26:56.175Z,4.60
2018-06-23T12:29:24.893Z,4.40
2018-06-23T12:31:53.649Z,4.30
2018-06-23T12:34:22.598Z,4.37
2018-06-23T12:36:51.244Z,4.20
2018-06-23T12:39:20.033Z,3.90
2018-06-23T12:41:48.739Z,4.20
2018-06-23T12:44:17.504Z,4.07
2018-06-23T12:46:46.165Z,3.90
2018-06-23T12:49:15.030Z,4.10
2018-06-23T12:51:43.686Z,4.20
2018-06-23T12:54:12.400Z,3.93
2018-06-23T12:56:41.077Z,4.23
2018-06-23T12:59:09.444Z,4.60
2018-06-23T13:01:38.410Z,4.53
2018-06-23T13:04:07.063Z,3.87
2018-06-23T13:06:36.382Z,4.40
2018-06-23T13:09:08.406Z,3.97
2018-06-23T13:11:37.221Z,3.87
2018-06-23T13:14:06.324Z,4.27
2018-06-23T13:16:35.087Z,3.90
2018-06-23T13:19:03.894Z,3.53
2018-06-23T13:21:32.607Z,3.40
2018-06-23T13:24:01.393Z,5.17
2018-06-23T13:26:30.203Z,3.50
2018-06-23T13:28:59.536Z,2.70
2018-06-23T13:31:28.220Z,3.30
2018-06-23T13:33:57.008Z,3.10
2018-06-23T13:36:26.575Z,3.20
2018-06-23T13:38:55.220Z,3.10
2018-06-23T13:41:23.825Z,3.10
2018-06-23T13:43:52.452Z,2.90
2018-06-23T13:46:21.097Z,3.00
2018-06-23T13:48:51.245Z,2.63
2018-06-23T13:51:20.052Z,2.60
2018-06-23T13:53:48.787Z,2.73
2018-06-23T13:56:17.681Z,2.90
2018-06-23T13:58:46.276Z,2.77
2018-06-23T14:01:14.932Z,2.50
2018-06-23T14:03:43.748Z,2.50
2018-06-23T14:06:12.424Z,1.93
2018-06-23T14:08:41.116Z,2.10
2018-06-23T14:11:09.845Z,2.20
2018-06-23T14:13:38.287Z,2.03
2018-06-23T14:16:06.925Z,1.97
2018-06-23T14:18:35.756Z,2.40
2018-06-23T14:21:04.438Z,2.17
2018-06-23T14:23:33.052Z,2.30
2018-06-23T14:26:01.707Z,2.80
2018-06-23T14:28:30.402Z,2.20
2018-06-23T14:30:59.126Z,2.60
2018-06-23T14:33:27.992Z,2.70
2018-06-23T14:35:56.665Z,2.63
2018-06-23T14:38:25.313Z,2.40
2018-06-23T14:40:54.137Z,3.10
2018-06-23T14:43:23.006Z,3.00
2018-06-23T14:45:51.683Z,3.00
2018-06-23T14:48:20.321Z,2.90
2018-06-23T14:50:49.109Z,2.93
2018-06-23T14:53:17.769Z,2.87
2018-06-23T14:55:46.576Z,3.20
2018-06-23T14:58:15.382Z,3.43
2018-06-23T15:00:44.085Z,3.00
2018-06-23T15:03:12.944Z,3.13
2018-06-23T15:05:41.824Z,3.30
2018-06-23T15:08:22.296Z,3.40
2018-06-23T15:11:02.196Z,3.70
2018-06-23T15:13:31.013Z,2.90
2018-06-23T15:15:59.663Z,3.80
2018-06-23T15:18:28.344Z,3.93
2018-06-23T15:20:57.047Z,3.63
2018-06-23T15:23:25.692Z,3.63
2018-06-23T15:25:54.366Z,3.33
2018-06-23T15:28:23.006Z,3.33
2018-06-23T15:30:51.656Z,3.60
2018-06-23T15:33:20.340Z,3.33
2018-06-23T15:35:48.994Z,3.17
2018-06-23T15:38:17.768Z,3.57
2018-06-23T15:40:46.690Z,3.77
2018-06-23T15:43:15.574Z,3.40
2018-06-23T15:45:44.482Z,3.17
2018-06-23T15:48:13.342Z,3.43
2018-06-23T15:50:42.139Z,3.20
2018-06-23T15:55:41.764Z,3.63
2018-06-23T15:58:10.453Z,3.47
2018-06-23T16:00:39.183Z,3.20
2018-06-23T16:03:08.046Z,3.90
2018-06-23T16:05:36.714Z,2.80
2018-06-23T16:08:05.430Z,3.23
2018-06-23T16:10:34.116Z,3.53
2018-06-23T16:13:02.978Z,3.40
2018-06-23T16:15:31.659Z,3.27
2018-06-23T16:18:00.466Z,3.30
2018-06-23T16:20:29.141Z,3.40
2018-06-23T16:22:57.788Z,3.03
2018-06-23T16:25:26.548Z,3.93
2018-06-23T16:27:55.260Z,3.20
2018-06-23T16:30:23.548Z,3.80
2018-06-23T16:32:52.369Z,3.43
2018-06-23T16:35:21.690Z,3.47
2018-06-23T16:37:50.046Z,3.57
2018-06-23T16:40:18.802Z,3.87
2018-06-23T16:42:47.509Z,3.50
2018-06-23T16:45:16.620Z,3.90
2018-06-23T16:47:45.381Z,4.57
2018-06-23T16:50:14.026Z,5.03
2018-06-23T16:52:42.679Z,5.00
2018-06-23T16:55:11.539Z,5.07
2018-06-23T16:57:40.156Z,4.97
2018-06-23T17:00:08.775Z,4.70
2018-06-23T17:02:37.797Z,5.10
2018-06-23T17:05:06.487Z,4.83
2018-06-23T17:07:35.125Z,4.83
2018-06-23T17:10:03.914Z,5.30
2018-06-23T17:12:32.545Z,5.30
2018-06-23T17:15:01.436Z,4.93
2018-06-23T17:17:30.198Z,4.80
2018-06-23T17:19:58.984Z,4.77
2018-06-23T17:22:27.669Z,4.77
2018-06-23T17:24:56.388Z,4.87
2018-06-23T17:27:24.996Z,4.63
2018-06-23T17:29:53.811Z,4.43
2018-06-23T17:32:22.973Z,4.60
2018-06-23T17:34:52.193Z,4.57
2018-06-23T17:37:21.264Z,4.57
2018-06-23T17:39:49.908Z,4.50
2018-06-23T17:42:18.597Z,5.50
2018-06-23T17:44:47.036Z,4.93
2018-06-23T17:47:15.713Z,4.07
2018-06-23T17:49:44.411Z,5.47
2018-06-23T17:52:13.037Z,4.50
2018-06-23T17:54:41.717Z,4.63
2018-06-23T17:57:10.498Z,3.83
2018-06-23T17:59:39.258Z,3.83
2018-06-23T18:02:08.389Z,3.80
2018-06-23T18:04:37.116Z,4.07
2018-06-23T18:07:06.039Z,3.63
2018-06-23T18:09:34.723Z,3.87
2018-06-23T18:12:03.409Z,3.67
2018-06-23T18:14:32.194Z,3.40
2018-06-23T18:17:00.889Z,3.67
2018-06-23T18:19:29.599Z,3.70
2018-06-23T18:21:58.359Z,4.30
2018-06-23T18:24:27.348Z,4.00
2018-06-23T18:26:56.123Z,3.97
2018-06-23T18:29:24.770Z,4.37
2018-06-23T18:31:53.572Z,3.80
2018-06-23T18:34:22.229Z,4.10
2018-06-23T18:36:50.841Z,3.90
2018-06-23T18:39:19.474Z,3.77
2018-06-23T18:41:48.125Z,4.00
2018-06-23T18:44:16.786Z,3.60
2018-06-23T18:46:45.429Z,3.50
2018-06-23T18:49:14.107Z,3.50
2018-06-23T18:51:42.790Z,3.50
2018-06-23T18:54:11.424Z,3.40
2018-06-23T18:56:40.121Z,4.03
2018-06-23T18:59:09.091Z,3.03
2018-06-23T19:01:37.867Z,4.00
2018-06-23T19:04:06.578Z,3.93
2018-06-23T19:06:35.282Z,3.80
2018-06-23T19:09:04.415Z,3.67
2018-06-23T19:11:33.340Z,3.60
2018-06-23T19:14:02.101Z,3.70
2018-06-23T19:16:30.766Z,3.90
2018-06-23T19:19:05.956Z,3.63
2018-06-23T19:21:34.716Z,3.73
2018-06-23T19:24:03.322Z,3.10
2018-06-23T19:26:32.010Z,3.30
2018-06-23T19:29:00.644Z,3.50
2018-06-23T19:31:29.359Z,3.33
2018-06-23T19:33:58.047Z,3.40
2018-06-23T19:36:26.850Z,3.10
2018-06-23T19:38:55.688Z,3.50
2018-06-23T19:41:26.174Z,3.47
2018-06-23T19:43:54.807Z,3.23
2018-06-23T19:46:23.627Z,3.37
2018-06-23T19:48:52.579Z,3.60
2018-06-23T19:51:21.287Z,3.50
2018-06-23T19:53:50.052Z,3.23
2018-06-23T19:56:18.811Z,3.27
2018-06-23T19:58:47.418Z,3.60
2018-06-23T20:01:16.157Z,3.80
2018-06-23T20:03:44.768Z,3.57
2018-06-23T20:06:13.665Z,3.90
2018-06-23T20:08:42.301Z,3.70
2018-06-23T20:11:11.413Z,3.77
2018-06-23T20:13:40.039Z,3.77
2018-06-23T20:16:08.868Z,3.90
2018-06-23T20:18:37.520Z,3.50
2018-06-23T20:21:06.389Z,3.37
2018-06-23T20:23:35.001Z,3.80
2018-06-23T20:26:03.621Z,4.00
2018-06-23T20:28:32.733Z,4.10
2018-06-23T20:31:01.345Z,4.13
2018-06-23T20:33:30.001Z,3.80
2018-06-23T20:35:58.715Z,3.67
2018-06-23T20:38:27.356Z,3.73
2018-06-23T20:40:56.093Z,4.33
2018-06-23T20:43:24.764Z,3.60
2018-06-23T20:45:53.435Z,4.00
2018-06-23T20:48:22.096Z,4.30
2018-06-23T20:50:50.769Z,4.80
2018-06-23T20:53:19.406Z,4.40
2018-06-23T20:55:48.183Z,4.23
2018-06-23T20:58:16.947Z,4.93
2018-06-23T21:00:45.624Z,4.70
2018-06-23T21:03:14.290Z,4.57
2018-06-23T21:05:42.667Z,4.67
2018-06-23T21:08:11.437Z,4.30
2018-06-23T21:10:43.366Z,4.13
2018-06-23T21:13:12.406Z,4.53
2018-06-23T21:15:41.220Z,4.07
2018-06-23T21:18:10.366Z,4.17
2018-06-23T21:20:39.138Z,4.47
2018-06-23T21:23:07.880Z,4.70
2018-06-23T21:25:36.617Z,4.13
2018-06-23T21:28:05.688Z,4.83
2018-06-23T21:30:34.306Z,4.93
2018-06-23T21:33:02.945Z,4.60
2018-06-23T21:35:31.666Z,4.63
2018-06-23T21:38:00.337Z,4.80
2018-06-23T21:40:29.014Z,4.43
2018-06-23T21:42:57.825Z,4.47
2018-06-23T21:45:26.540Z,4.90
2018-06-23T21:47:55.261Z,5.10
2018-06-23T21:50:24.203Z,5.00
2018-06-23T21:52:53.092Z,4.43
2018-06-23T21:55:21.901Z,4.83
2018-06-23T21:57:50.800Z,6.77
2018-06-23T22:00:38.731Z,7.80
2018-06-23T22:03:08.826Z,6.40
2018-06-23T22:05:37.586Z,6.23
2018-06-23T22:08:07.353Z,5.90
2018-06-23T22:10:36.194Z,4.87
2018-06-23T22:13:05.627Z,5.57
2018-06-23T22:15:34.317Z,4.90
2018-06-23T22:18:03.019Z,5.63
2018-06-23T22:20:31.892Z,5.63
2018-06-23T22:23:00.614Z,5.87
2018-06-23T22:25:29.331Z,6.03
2018-06-23T22:27:58.145Z,6.03
2018-06-23T22:30:26.883Z,5.73
2018-06-23T22:32:55.544Z,6.27
2018-06-23T22:35:24.229Z,6.07
2018-06-23T22:37:53.217Z,5.57
2018-06-23T22:40:21.913Z,5.90
2018-06-23T22:42:50.577Z,6.20
2018-06-23T22:45:19.262Z,6.53
2018-06-23T22:47:48.566Z,6.07
2018-06-23T22:50:17.196Z,6.57
2018-06-23T22:52:46.237Z,6.07
2018-06-23T22:55:15.746Z,7.07
2018-06-23T22:57:44.532Z,7.53
2018-06-23T23:00:14.380Z,7.50
2018-06-23T23:02:44.054Z,6.97
2018-06-23T23:05:12.745Z,7.37
2018-06-23T23:07:42.519Z,7.60
2018-06-23T23:10:12.138Z,7.07
2018-06-23T23:12:41.197Z,7.17
2018-06-23T23:15:09.911Z,7.17
2018-06-23T23:17:39.354Z,6.57
2018-06-23T23:20:08.037Z,7.37
2018-06-23T23:22:36.701Z,7.07
2018-06-23T23:25:05.378Z,7.47
2018-06-23T23:27:34.116Z,7.07
2018-06-23T23:30:03.147Z,6.80
2018-06-23T23:32:31.956Z,7.30
2018-06-23T23:35:00.973Z,6.20
2018-06-23T23:37:29.726Z,6.57
2018-06-23T23:39:58.369Z,7.00
2018-06-23T23:42:27.017Z,7.23
2018-06-23T23:44:55.717Z,6.40
2018-06-23T23:47:24.557Z,6.53
2018-06-23T23:49:53.417Z,6.63
2018-06-23T23:52:22.185Z,7.00
2018-06-23T23:54:51.009Z,6.57
2018-06-23T23:57:19.824Z,7.13
2018-06-23T23:59:48.461Z,6.27
